createdAt,value
2023-07-09T00:02:57.008Z,1.33
2023-07-09T00:06:02.271Z,1.65
2023-07-09T00:09:07.122Z,1.20
2023-07-09T00:12:13.173Z,1.50
2023-07-09T00:15:19.129Z,1.30
2023-07-09T00:18:22.988Z,1.17
2023-07-09T00:21:34.546Z,1.42
2023-07-09T00:24:38.273Z,1.40
2023-07-09T00:27:42.145Z,1.58
2023-07-09T00:30:48.787Z,1.60
2023-07-09T00:33:53.175Z,1.58
2023-07-09T00:36:58.903Z,1.58
2023-07-09T00:40:02.338Z,1.65
2023-07-09T00:43:06.042Z,1.48
2023-07-09T00:46:17.435Z,1.55
2023-07-09T00:49:31.117Z,1.50
2023-07-09T00:52:38.623Z,1.27
2023-07-09T00:55:44.910Z,1.30
2023-07-09T00:58:53.254Z,1.40
2023-07-09T01:02:00.078Z,1.25
2023-07-09T01:05:04.515Z,1.42
2023-07-09T01:08:10.972Z,1.33
2023-07-09T01:11:22.584Z,1.40
2023-07-09T01:14:27.562Z,1.20
2023-07-09T01:17:31.546Z,1.90
2023-07-09T01:20:35.245Z,1.42
2023-07-09T01:23:41.941Z,1.42
2023-07-09T01:26:48.584Z,1.73
2023-07-09T01:29:52.803Z,1.70
2023-07-09T01:32:59.168Z,1.98
2023-07-09T01:36:04.137Z,1.40
2023-07-09T01:39:09.728Z,1.27
2023-07-09T01:42:14.257Z,1.70
2023-07-09T01:45:18.148Z,1.45
2023-07-09T01:48:25.413Z,1.30
2023-07-09T01:51:29.332Z,1.42
2023-07-09T01:54:38.941Z,1.83
2023-07-09T01:57:44.598Z,1.50
2023-07-09T02:00:49.016Z,1.52
2023-07-09T02:03:53.744Z,1.30
2023-07-09T02:07:02.294Z,2.10
2023-07-09T02:10:09.101Z,1.60
2023-07-09T02:13:12.996Z,1.60
2023-07-09T02:16:16.835Z,1.45
2023-07-09T02:19:20.794Z,1.77
2023-07-09T02:22:25.328Z,1.70
2023-07-09T02:25:30.509Z,2.03
2023-07-09T02:28:35.044Z,1.58
2023-07-09T02:31:41.253Z,1.60
2023-07-09T02:34:50.158Z,1.20
2023-07-09T02:37:54.261Z,1.50
2023-07-09T02:41:05.814Z,1.73
2023-07-09T02:44:12.308Z,1.60
2023-07-09T02:47:16.698Z,1.48
2023-07-09T02:50:20.330Z,1.60
2023-07-09T02:53:24.250Z,1.30
2023-07-09T02:56:29.631Z,1.55
2023-07-09T02:59:34.035Z,1.20
2023-07-09T03:02:37.804Z,1.50
2023-07-09T03:05:41.522Z,1.75
2023-07-09T03:08:47.064Z,1.42
2023-07-09T03:11:54.190Z,1.50
2023-07-09T03:14:57.724Z,1.60
2023-07-09T03:18:01.594Z,1.80
2023-07-09T03:21:05.515Z,2.00
2023-07-09T03:24:10.566Z,1.55
2023-07-09T03:27:20.089Z,1.65
2023-07-09T03:30:25.546Z,1.60
2023-07-09T03:33:29.722Z,1.80
2023-07-09T03:36:34.614Z,1.67
2023-07-09T03:39:39.108Z,1.45
2023-07-09T03:42:44.295Z,1.63
2023-07-09T03:45:48.086Z,1.40
2023-07-09T03:48:51.964Z,2.00
2023-07-09T03:51:56.457Z,1.52
2023-07-09T03:55:01.864Z,1.70
2023-07-09T03:58:07.060Z,1.48
2023-07-09T04:01:11.056Z,1.63
2023-07-09T04:04:14.860Z,2.10
2023-07-09T04:07:21.048Z,1.80
2023-07-09T04:10:24.948Z,1.90
2023-07-09T04:13:30.269Z,1.67
2023-07-09T04:16:34.788Z,1.83
2023-07-09T04:19:40.184Z,1.50
2023-07-09T04:22:43.446Z,1.92
2023-07-09T04:25:47.150Z,1.70
2023-07-09T04:28:52.133Z,1.63
2023-07-09T04:31:55.688Z,1.65
2023-07-09T04:34:59.589Z,1.65
2023-07-09T04:38:03.214Z,1.88
2023-07-09T04:41:07.844Z,1.88
2023-07-09T04:44:20.572Z,1.63
2023-07-09T04:47:24.358Z,1.65
2023-07-09T04:50:28.203Z,1.77
2023-07-09T04:53:33.016Z,1.65
2023-07-09T04:56:40.389Z,1.67
2023-07-09T04:59:45.923Z,1.73
2023-07-09T05:02:49.581Z,2.10
2023-07-09T05:05:53.178Z,2.00
2023-07-09T05:08:56.770Z,1.38
2023-07-09T05:12:00.299Z,1.88
2023-07-09T05:15:06.391Z,1.70
2023-07-09T05:18:10.449Z,1.80
2023-07-09T05:21:14.195Z,1.50
2023-07-09T05:24:18.800Z,2.20
2023-07-09T05:27:22.675Z,1.80
2023-07-09T05:30:28.653Z,1.83
2023-07-09T05:33:32.539Z,1.88
2023-07-09T05:36:35.952Z,2.00
2023-07-09T05:39:40.026Z,1.70
2023-07-09T05:42:43.648Z,2.30
2023-07-09T05:45:48.829Z,1.70
2023-07-09T05:48:53.342Z,2.20
2023-07-09T05:51:57.551Z,2.05
2023-07-09T05:55:01.746Z,1.83
2023-07-09T05:58:05.525Z,1.90
2023-07-09T06:01:10.414Z,2.08
2023-07-09T06:04:15.113Z,1.67
2023-07-09T06:07:19.487Z,1.98
2023-07-09T06:10:23.724Z,1.60
2023-07-09T06:13:27.895Z,2.38
2023-07-09T06:16:33.056Z,1.80
2023-07-09T06:19:37.042Z,1.92
2023-07-09T06:22:40.615Z,2.00
2023-07-09T06:25:44.835Z,2.00
2023-07-09T06:28:48.572Z,1.92
2023-07-09T06:31:53.431Z,1.52
2023-07-09T06:34:57.008Z,1.88
2023-07-09T06:38:00.827Z,2.20
2023-07-09T06:41:04.832Z,1.95
2023-07-09T06:44:08.810Z,1.77
2023-07-09T06:47:14.967Z,1.85
2023-07-09T06:50:19.355Z,1.70
2023-07-09T06:53:22.839Z,1.75
2023-07-09T06:56:28.523Z,1.85
2023-07-09T06:59:32.087Z,1.88
2023-07-09T07:02:37.380Z,1.70
2023-07-09T07:05:45.857Z,1.67
2023-07-09T07:08:51.473Z,1.77
2023-07-09T07:11:55.939Z,1.95
2023-07-09T07:15:00.659Z,1.95
2023-07-09T07:18:08.303Z,1.90
2023-07-09T07:21:13.850Z,1.70
2023-07-09T07:24:17.496Z,2.10
2023-07-09T07:27:20.962Z,1.58
2023-07-09T07:30:25.829Z,1.83
2023-07-09T07:33:31.668Z,1.83
2023-07-09T07:36:38.703Z,2.03
2023-07-09T07:39:43.186Z,1.58
2023-07-09T07:42:48.787Z,1.65
2023-07-09T07:45:52.375Z,2.00
2023-07-09T07:48:57.497Z,1.92
2023-07-09T07:52:04.778Z,1.95
2023-07-09T07:55:09.517Z,1.80
2023-07-09T07:58:14.552Z,1.80
2023-07-09T08:01:18.270Z,1.48
2023-07-09T08:04:36.263Z,2.05
2023-07-09T08:07:40.240Z,2.00
2023-07-09T08:10:43.714Z,1.60
2023-07-09T08:13:49.033Z,1.73
2023-07-09T08:16:52.796Z,2.08
2023-07-09T08:20:02.260Z,1.77
2023-07-09T08:23:09.307Z,1.73
2023-07-09T08:26:13.246Z,1.65
2023-07-09T08:29:16.850Z,1.83
2023-07-09T08:32:20.591Z,2.00
2023-07-09T08:35:35.898Z,2.08
2023-07-09T08:38:40.793Z,1.83
2023-07-09T08:41:48.494Z,1.80
2023-07-09T08:45:03.628Z,1.83
2023-07-09T08:48:09.680Z,2.15
2023-07-09T08:51:16.608Z,2.00
2023-07-09T08:54:23.562Z,1.80
2023-07-09T08:57:28.796Z,1.85
2023-07-09T09:00:34.097Z,2.00
2023-07-09T09:03:39.410Z,1.80
2023-07-09T09:06:45.626Z,2.13
2023-07-09T09:09:52.882Z,1.60
2023-07-09T09:13:12.770Z,2.13
2023-07-09T09:16:20.240Z,2.05
2023-07-09T09:19:26.640Z,2.25
2023-07-09T09:22:33.627Z,1.90
2023-07-09T09:25:42.346Z,1.92
2023-07-09T09:28:46.523Z,2.22
2023-07-09T09:31:53.484Z,2.00
2023-07-09T09:34:57.985Z,1.85
2023-07-09T09:38:03.226Z,1.83
2023-07-09T09:41:06.851Z,2.22
2023-07-09T09:44:19.707Z,2.10
2023-07-09T09:47:24.486Z,2.22
2023-07-09T09:50:29.193Z,2.10
2023-07-09T09:53:41.279Z,1.90
2023-07-09T09:56:51.854Z,1.80
2023-07-09T09:59:57.590Z,1.95
2023-07-09T10:03:03.049Z,2.08
2023-07-09T10:06:08.984Z,1.88
2023-07-09T10:09:18.885Z,2.05
2023-07-09T10:12:33.824Z,2.50
2023-07-09T10:15:40.519Z,2.17
2023-07-09T10:18:53.425Z,2.40
2023-07-09T10:22:01.667Z,2.00
2023-07-09T10:25:13.397Z,2.28
2023-07-09T10:28:24.463Z,2.25
2023-07-09T10:31:38.097Z,2.53
2023-07-09T10:34:52.063Z,2.20
2023-07-09T10:38:02.515Z,2.22
2023-07-09T10:44:22.198Z,2.22
2023-07-09T10:47:31.499Z,2.30
2023-07-09T10:50:36.679Z,2.03
2023-07-09T10:53:43.218Z,2.42
2023-07-09T10:56:51.114Z,2.15
2023-07-09T10:59:55.459Z,2.72
2023-07-09T11:03:03.847Z,2.20
2023-07-09T11:06:08.356Z,2.70
2023-07-09T11:09:16.497Z,2.13
2023-07-09T11:12:22.989Z,2.17
2023-07-09T11:15:28.824Z,2.17
2023-07-09T11:18:34.767Z,2.20
2023-07-09T11:21:47.783Z,2.63
2023-07-09T11:24:53.268Z,2.45
2023-07-09T11:28:07.078Z,1.80
2023-07-09T11:31:19.593Z,2.40
2023-07-09T11:34:36.872Z,2.38
2023-07-09T11:38:08.093Z,2.25
2023-07-09T11:41:32.773Z,2.53
2023-07-09T11:44:48.509Z,2.55
2023-07-09T11:47:55.329Z,2.08
2023-07-09T11:51:00.714Z,2.65
2023-07-09T11:54:04.409Z,2.40
2023-07-09T11:57:13.471Z,2.53
2023-07-09T12:00:20.313Z,2.38
2023-07-09T12:03:26.257Z,2.50
2023-07-09T12:06:31.356Z,2.38
2023-07-09T12:09:35.518Z,2.30
2023-07-09T12:12:39.229Z,2.53
2023-07-09T12:15:45.281Z,2.35
2023-07-09T12:18:49.405Z,2.45
2023-07-09T12:21:54.986Z,2.38
2023-07-09T12:24:58.726Z,3.15
2023-07-09T12:28:02.409Z,2.47
2023-07-09T12:31:07.639Z,2.40
2023-07-09T12:34:15.816Z,2.63
2023-07-09T12:37:20.133Z,2.42
2023-07-09T12:40:24.870Z,2.55
2023-07-09T12:43:29.497Z,2.45
2023-07-09T12:46:35.161Z,2.80
2023-07-09T12:49:41.544Z,2.78
2023-07-09T12:52:48.557Z,2.53
2023-07-09T12:55:55.066Z,2.92
2023-07-09T12:59:00.243Z,2.83
2023-07-09T13:02:08.271Z,2.88
2023-07-09T13:05:20.285Z,2.45
2023-07-09T13:08:25.316Z,2.80
2023-07-09T13:11:34.671Z,2.75
2023-07-09T13:14:38.580Z,2.58
2023-07-09T13:17:44.922Z,3.17
2023-07-09T13:20:49.109Z,2.70
2023-07-09T13:23:53.794Z,2.80
2023-07-09T13:27:00.265Z,2.83
2023-07-09T13:30:04.240Z,2.97
2023-07-09T13:33:15.180Z,2.45
2023-07-09T13:36:18.833Z,2.42
2023-07-09T13:39:22.473Z,2.40
2023-07-09T13:42:28.752Z,2.85
2023-07-09T13:45:32.615Z,2.50
2023-07-09T13:48:39.503Z,2.95
2023-07-09T13:51:44.143Z,3.65
2023-07-09T13:54:49.295Z,2.95
2023-07-09T13:57:54.565Z,2.92
2023-07-09T14:01:00.154Z,2.63
2023-07-09T14:04:06.812Z,2.60
2023-07-09T14:07:12.193Z,2.65
2023-07-09T14:10:24.145Z,3.03
2023-07-09T14:13:28.718Z,2.90
2023-07-09T14:16:33.273Z,2.60
2023-07-09T14:19:38.365Z,2.90
2023-07-09T14:22:43.698Z,2.70
2023-07-09T14:25:47.644Z,2.53
2023-07-09T14:28:51.189Z,2.50
2023-07-09T14:31:57.605Z,2.35
2023-07-09T14:35:02.784Z,2.83
2023-07-09T14:38:12.588Z,3.03
2023-07-09T14:41:21.597Z,2.97
2023-07-09T14:44:26.399Z,3.03
2023-07-09T14:47:30.349Z,3.03
2023-07-09T14:50:35.661Z,2.67
2023-07-09T14:53:39.521Z,2.35
2023-07-09T14:56:42.989Z,3.15
2023-07-09T14:59:46.576Z,2.67
2023-07-09T15:02:52.310Z,2.67
2023-07-09T15:05:57.355Z,2.70
2023-07-09T15:09:01.343Z,2.42
2023-07-09T15:12:05.932Z,2.97
2023-07-09T15:15:16.388Z,3.05
2023-07-09T15:18:21.188Z,3.00
2023-07-09T15:21:30.094Z,2.72
2023-07-09T15:24:38.068Z,3.53
2023-07-09T15:27:41.540Z,2.70
2023-07-09T15:30:45.494Z,2.95
2023-07-09T15:33:53.752Z,2.72
2023-07-09T15:37:00.697Z,2.90
2023-07-09T15:40:06.264Z,2.85
2023-07-09T15:43:11.474Z,2.92
2023-07-09T15:46:19.510Z,2.95
2023-07-09T15:49:25.609Z,3.50
2023-07-09T15:52:31.411Z,2.83
2023-07-09T15:55:39.541Z,2.97
2023-07-09T15:58:45.407Z,3.13
2023-07-09T16:01:50.725Z,2.97
2023-07-09T16:04:55.297Z,3.33
2023-07-09T16:08:02.617Z,3.17
2023-07-09T16:11:07.560Z,3.30
2023-07-09T16:14:22.432Z,3.20
2023-07-09T16:17:26.393Z,3.40
2023-07-09T16:20:30.895Z,3.42
2023-07-09T16:23:36.167Z,3.08
2023-07-09T16:26:42.304Z,2.67
2023-07-09T16:29:46.408Z,3.03
2023-07-09T16:32:50.274Z,3.40
2023-07-09T16:35:57.722Z,2.90
2023-07-09T16:39:04.328Z,2.90
2023-07-09T16:42:11.268Z,2.90
2023-07-09T16:45:20.339Z,3.08
2023-07-09T16:48:28.315Z,2.80
2023-07-09T16:51:33.751Z,2.95
2023-07-09T16:54:38.845Z,2.80
2023-07-09T16:57:42.653Z,3.08
2023-07-09T17:00:49.347Z,3.05
2023-07-09T17:03:54.130Z,2.78
2023-07-09T17:07:04.704Z,2.90
2023-07-09T17:10:17.524Z,2.47
2023-07-09T17:13:28.409Z,2.75
2023-07-09T17:16:35.049Z,2.85
2023-07-09T17:19:38.672Z,3.20
2023-07-09T17:22:42.906Z,2.92
2023-07-09T17:25:49.091Z,2.95
2023-07-09T17:28:53.347Z,2.53
2023-07-09T17:31:57.454Z,2.92
2023-07-09T17:35:02.448Z,2.80
2023-07-09T17:38:07.059Z,2.80
2023-07-09T17:41:12.705Z,2.70
2023-07-09T17:44:20.464Z,3.08
2023-07-09T17:47:24.240Z,2.83
2023-07-09T17:50:28.616Z,3.05
2023-07-09T17:53:33.397Z,2.90
2023-07-09T17:56:39.598Z,3.08
2023-07-09T17:59:44.351Z,3.22
2023-07-09T18:02:52.397Z,3.63
2023-07-09T18:05:56.246Z,3.42
2023-07-09T18:09:00.896Z,3.55
2023-07-09T18:12:07.430Z,3.72
2023-07-09T18:15:17.092Z,3.53
2023-07-09T18:18:22.300Z,3.38
2023-07-09T18:21:46.040Z,3.28
2023-07-09T18:24:54.704Z,3.50
2023-07-09T18:28:00.624Z,3.25
2023-07-09T18:31:15.796Z,3.25
2023-07-09T18:34:22.305Z,3.85
2023-07-09T18:37:25.750Z,3.20
2023-07-09T18:40:32.307Z,3.10
2023-07-09T18:43:37.464Z,3.22
2023-07-09T18:46:41.871Z,3.40
2023-07-09T18:49:49.867Z,3.17
2023-07-09T18:52:53.691Z,2.80
2023-07-09T18:55:58.404Z,3.40
2023-07-09T18:59:05.344Z,4.63
2023-07-09T19:02:18.975Z,3.50
2023-07-09T19:05:23.590Z,3.75
2023-07-09T19:08:29.788Z,3.70
2023-07-09T19:11:33.627Z,3.67
2023-07-09T19:14:38.969Z,3.42
2023-07-09T19:17:42.924Z,3.50
2023-07-09T19:20:47.106Z,3.15
2023-07-09T19:23:50.971Z,3.20
2023-07-09T19:26:55.381Z,3.90
2023-07-09T19:30:00.761Z,3.05
2023-07-09T19:33:04.275Z,3.33
2023-07-09T19:36:19.094Z,3.20
2023-07-09T19:39:27.529Z,2.90
2023-07-09T19:42:31.644Z,3.25
2023-07-09T19:45:40.409Z,3.05
2023-07-09T19:48:44.197Z,2.78
2023-07-09T19:51:48.560Z,2.85
2023-07-09T19:54:52.096Z,3.40
2023-07-09T19:57:55.665Z,3.33
2023-07-09T20:01:01.600Z,2.88
2023-07-09T20:04:05.336Z,2.97
2023-07-09T20:07:11.844Z,2.95
2023-07-09T20:10:15.783Z,3.10
2023-07-09T20:13:23.672Z,3.35
2023-07-09T20:16:30.532Z,2.95
2023-07-09T20:19:34.885Z,3.35
2023-07-09T20:22:40.611Z,3.25
2023-07-09T20:25:44.408Z,3.03
2023-07-09T20:28:47.994Z,2.90
2023-07-09T20:31:56.313Z,2.47
2023-07-09T20:35:00.503Z,3.45
2023-07-09T20:38:05.322Z,2.97
2023-07-09T20:41:13.081Z,2.80
2023-07-09T20:44:22.436Z,2.13
2023-07-09T20:47:27.930Z,1.85
2023-07-09T20:50:32.690Z,1.88
2023-07-09T20:53:36.307Z,1.52
2023-07-09T20:56:40.366Z,1.70
2023-07-09T20:59:44.507Z,1.40
2023-07-09T21:02:50.662Z,1.80
2023-07-09T21:05:54.624Z,1.38
2023-07-09T21:09:01.568Z,1.63
2023-07-09T21:12:08.125Z,1.80
2023-07-09T21:15:11.928Z,1.67
2023-07-09T21:18:18.284Z,1.50
2023-07-09T21:21:21.859Z,1.45
2023-07-09T21:24:27.154Z,1.60
2023-07-09T21:27:31.882Z,1.65
2023-07-09T21:30:35.423Z,1.65
2023-07-09T21:33:40.521Z,1.77
2023-07-09T21:36:44.070Z,1.90
2023-07-09T21:39:48.395Z,1.42
2023-07-09T21:42:54.935Z,1.58
2023-07-09T21:46:00.143Z,1.52
2023-07-09T21:49:05.147Z,1.60
2023-07-09T21:52:18.085Z,2.00
2023-07-09T21:55:22.968Z,1.92
2023-07-09T21:58:26.574Z,1.73
2023-07-09T22:01:30.187Z,1.70
2023-07-09T22:04:35.940Z,1.80
2023-07-09T22:07:39.370Z,1.88
2023-07-09T22:10:45.106Z,1.70
2023-07-09T22:13:49.470Z,2.30
2023-07-09T22:16:57.912Z,1.90
2023-07-09T22:20:03.708Z,1.92
2023-07-09T22:23:08.972Z,1.83
2023-07-09T22:26:12.435Z,1.88
2023-07-09T22:29:16.460Z,2.15
2023-07-09T22:32:23.505Z,2.65
2023-07-09T22:35:31.711Z,2.50
2023-07-09T22:38:35.137Z,2.15
2023-07-09T22:41:38.658Z,2.33
2023-07-09T22:44:44.217Z,2.03
2023-07-09T22:47:52.962Z,2.08
2023-07-09T22:51:01.400Z,2.00
2023-07-09T22:54:05.154Z,1.88
2023-07-09T22:57:08.750Z,1.67
2023-07-09T23:00:13.296Z,1.80
2023-07-09T23:03:18.477Z,2.00
2023-07-09T23:06:25.055Z,2.08
2023-07-09T23:09:30.740Z,2.20
2023-07-09T23:12:35.412Z,2.05
2023-07-09T23:15:39.343Z,1.83
2023-07-09T23:18:46.139Z,2.33
2023-07-09T23:21:51.452Z,2.20
2023-07-09T23:24:55.014Z,2.50
2023-07-09T23:27:58.888Z,2.05
2023-07-09T23:31:03.641Z,2.15
2023-07-09T23:34:12.073Z,1.95
2023-07-09T23:37:17.177Z,2.25
2023-07-09T23:40:21.890Z,2.22
2023-07-09T23:43:26.080Z,2.33
2023-07-09T23:46:32.693Z,2.13
2023-07-09T23:49:36.329Z,2.22
2023-07-09T23:52:43.897Z,2.45
2023-07-09T23:55:47.687Z,2.20
2023-07-09T23:58:51.684Z,2.70
